sensor_id;sensor_type;location;lat;lon;timestamp;P1;durP1;ratioP1;P2;durP2;ratioP2
56577;SDS011;42461;53.192;5.646;2022-08-07T00:00:32;7.07;;;6.47;;
56577;SDS011;42461;53.192;5.646;2022-08-07T00:02:58;6.88;;;6.18;;
56577;SDS011;42461;53.192;5.646;2022-08-07T00:05:24;8.10;;;6.30;;
56577;SDS011;42461;53.192;5.646;2022-08-07T00:07:51;7.15;;;6.43;;
56577;SDS011;42461;53.192;5.646;2022-08-07T00:10:17;6.22;;;5.72;;
56577;SDS011;42461;53.192;5.646;2022-08-07T00:12:43;6.85;;;6.15;;
56577;SDS011;42461;53.192;5.646;2022-08-07T00:15:09;6.93;;;6.18;;
56577;SDS011;42461;53.192;5.646;2022-08-07T00:17:36;7.15;;;6.55;;
56577;SDS011;42461;53.192;5.646;2022-08-07T00:20:02;6.38;;;5.78;;
56577;SDS011;42461;53.192;5.646;2022-08-07T00:22:29;7.63;;;6.55;;
56577;SDS011;42461;53.192;5.646;2022-08-07T00:24:55;7.45;;;6.75;;
56577;SDS011;42461;53.192;5.646;2022-08-07T00:27:21;7.90;;;6.93;;
56577;SDS011;42461;53.192;5.646;2022-08-07T00:29:47;8.30;;;7.50;;
56577;SDS011;42461;53.192;5.646;2022-08-07T00:32:13;8.35;;;6.47;;
56577;SDS011;42461;53.192;5.646;2022-08-07T00:34:39;8.43;;;6.20;;
56577;SDS011;42461;53.192;5.646;2022-08-07T00:37:06;7.85;;;7.07;;
56577;SDS011;42461;53.192;5.646;2022-08-07T00:39:33;7.40;;;6.78;;
56577;SDS011;42461;53.192;5.646;2022-08-07T00:41:59;6.80;;;6.20;;
56577;SDS011;42461;53.192;5.646;2022-08-07T00:44:25;7.70;;;6.57;;
56577;SDS011;42461;53.192;5.646;2022-08-07T00:46:52;6.43;;;5.85;;
56577;SDS011;42461;53.192;5.646;2022-08-07T00:49:18;6.50;;;5.90;;
56577;SDS011;42461;53.192;5.646;2022-08-07T00:51:44;7.18;;;6.47;;
56577;SDS011;42461;53.192;5.646;2022-08-07T00:54:10;7.22;;;6.53;;
56577;SDS011;42461;53.192;5.646;2022-08-07T00:56:39;6.18;;;5.65;;
56577;SDS011;42461;53.192;5.646;2022-08-07T00:59:05;7.20;;;6.50;;
56577;SDS011;42461;53.192;5.646;2022-08-07T01:01:32;7.90;;;7.10;;
56577;SDS011;42461;53.192;5.646;2022-08-07T01:03:58;7.60;;;6.90;;
56577;SDS011;42461;53.192;5.646;2022-08-07T01:06:24;8.55;;;7.72;;
56577;SDS011;42461;53.192;5.646;2022-08-07T01:08:50;7.75;;;7.05;;
56577;SDS011;42461;53.192;5.646;2022-08-07T01:11:16;9.95;;;8.45;;
56577;SDS011;42461;53.192;5.646;2022-08-07T01:13:43;9.02;;;8.23;;
56577;SDS011;42461;53.192;5.646;2022-08-07T01:16:09;9.88;;;8.85;;
56577;SDS011;42461;53.192;5.646;2022-08-07T01:18:35;12.40;;;9.90;;
56577;SDS011;42461;53.192;5.646;2022-08-07T01:21:11;12.50;;;11.05;;
56577;SDS011;42461;53.192;5.646;2022-08-07T01:23:39;12.98;;;11.45;;
56577;SDS011;42461;53.192;5.646;2022-08-07T01:26:06;12.65;;;11.45;;
56577;SDS011;42461;53.192;5.646;2022-08-07T01:28:33;14.25;;;12.82;;
56577;SDS011;42461;53.192;5.646;2022-08-07T01:31:00;13.98;;;12.45;;
56577;SDS011;42461;53.192;5.646;2022-08-07T01:33:26;13.40;;;11.70;;
56577;SDS011;42461;53.192;5.646;2022-08-07T01:35:53;12.57;;;11.30;;
56577;SDS011;42461;53.192;5.646;2022-08-07T01:38:19;13.05;;;11.07;;
56577;SDS011;42461;53.192;5.646;2022-08-07T01:40:46;10.93;;;9.70;;
56577;SDS011;42461;53.192;5.646;2022-08-07T01:43:14;10.55;;;9.55;;
56577;SDS011;42461;53.192;5.646;2022-08-07T01:45:40;11.02;;;9.88;;
56577;SDS011;42461;53.192;5.646;2022-08-07T01:48:06;10.93;;;9.80;;
56577;SDS011;42461;53.192;5.646;2022-08-07T01:50:34;10.45;;;9.23;;
56577;SDS011;42461;53.192;5.646;2022-08-07T01:53:01;9.80;;;8.90;;
56577;SDS011;42461;53.192;5.646;2022-08-07T01:55:28;9.45;;;8.55;;
56577;SDS011;42461;53.192;5.646;2022-08-07T01:57:59;9.57;;;8.68;;
56577;SDS011;42461;53.192;5.646;2022-08-07T02:00:25;10.27;;;9.30;;
56577;SDS011;42461;53.192;5.646;2022-08-07T02:02:53;11.75;;;10.55;;
56577;SDS011;42461;53.192;5.646;2022-08-07T02:05:37;12.55;;;11.20;;
56577;SDS011;42461;53.192;5.646;2022-08-07T02:08:09;12.40;;;11.20;;
56577;SDS011;42461;53.192;5.646;2022-08-07T02:10:36;11.57;;;10.25;;
56577;SDS011;42461;53.192;5.646;2022-08-07T02:13:03;11.07;;;9.93;;
56577;SDS011;42461;53.192;5.646;2022-08-07T02:15:30;11.80;;;10.32;;
56577;SDS011;42461;53.192;5.646;2022-08-07T02:17:56;10.63;;;9.35;;
56577;SDS011;42461;53.192;5.646;2022-08-07T02:20:23;10.63;;;9.60;;
56577;SDS011;42461;53.192;5.646;2022-08-07T02:22:56;9.55;;;8.55;;
56577;SDS011;42461;53.192;5.646;2022-08-07T02:25:25;14.05;;;9.05;;
56577;SDS011;42461;53.192;5.646;2022-08-07T02:27:52;9.48;;;8.48;;
56577;SDS011;42461;53.192;5.646;2022-08-07T02:30:19;9.85;;;8.82;;
56577;SDS011;42461;53.192;5.646;2022-08-07T02:32:46;9.63;;;8.63;;
56577;SDS011;42461;53.192;5.646;2022-08-07T02:35:12;9.65;;;8.65;;
56577;SDS011;42461;53.192;5.646;2022-08-07T02:37:42;9.45;;;8.45;;
56577;SDS011;42461;53.192;5.646;2022-08-07T02:40:10;10.07;;;8.63;;
56577;SDS011;42461;53.192;5.646;2022-08-07T02:42:36;9.48;;;8.38;;
56577;SDS011;42461;53.192;5.646;2022-08-07T02:45:03;8.55;;;7.75;;
56577;SDS011;42461;53.192;5.646;2022-08-07T02:47:30;9.07;;;8.15;;
56577;SDS011;42461;53.192;5.646;2022-08-07T02:49:56;9.32;;;8.50;;
56577;SDS011;42461;53.192;5.646;2022-08-07T02:52:34;9.88;;;8.32;;
56577;SDS011;42461;53.192;5.646;2022-08-07T02:55:06;9.00;;;8.10;;
56577;SDS011;42461;53.192;5.646;2022-08-07T02:57:35;8.32;;;7.53;;
56577;SDS011;42461;53.192;5.646;2022-08-07T03:00:03;8.73;;;7.72;;
56577;SDS011;42461;53.192;5.646;2022-08-07T03:02:29;9.05;;;8.18;;
56577;SDS011;42461;53.192;5.646;2022-08-07T03:04:56;9.90;;;9.00;;
56577;SDS011;42461;53.192;5.646;2022-08-07T03:07:23;9.02;;;8.13;;
56577;SDS011;42461;53.192;5.646;2022-08-07T03:09:50;8.25;;;7.47;;
56577;SDS011;42461;53.192;5.646;2022-08-07T03:12:17;10.50;;;8.95;;
56577;SDS011;42461;53.192;5.646;2022-08-07T03:14:43;9.13;;;8.10;;
56577;SDS011;42461;53.192;5.646;2022-08-07T03:17:09;9.50;;;8.15;;
56577;SDS011;42461;53.192;5.646;2022-08-07T03:19:35;8.73;;;7.82;;
56577;SDS011;42461;53.192;5.646;2022-08-07T03:22:02;9.77;;;8.48;;
56577;SDS011;42461;53.192;5.646;2022-08-07T03:24:29;9.85;;;8.88;;
56577;SDS011;42461;53.192;5.646;2022-08-07T03:26:58;9.00;;;8.10;;
56577;SDS011;42461;53.192;5.646;2022-08-07T03:29:26;8.60;;;7.68;;
56577;SDS011;42461;53.192;5.646;2022-08-07T03:31:54;8.23;;;7.43;;
56577;SDS011;42461;53.192;5.646;2022-08-07T03:34:20;8.55;;;7.60;;
56577;SDS011;42461;53.192;5.646;2022-08-07T03:36:46;7.78;;;7.07;;
56577;SDS011;42461;53.192;5.646;2022-08-07T03:39:12;8.07;;;7.28;;
56577;SDS011;42461;53.192;5.646;2022-08-07T03:41:40;8.82;;;7.97;;
56577;SDS011;42461;53.192;5.646;2022-08-07T03:44:06;8.68;;;7.88;;
56577;SDS011;42461;53.192;5.646;2022-08-07T03:46:33;8.68;;;7.88;;
56577;SDS011;42461;53.192;5.646;2022-08-07T03:48:59;8.73;;;7.82;;
56577;SDS011;42461;53.192;5.646;2022-08-07T03:51:26;9.50;;;7.93;;
56577;SDS011;42461;53.192;5.646;2022-08-07T03:53:53;8.98;;;8.07;;
56577;SDS011;42461;53.192;5.646;2022-08-07T03:56:20;7.93;;;7.13;;
56577;SDS011;42461;53.192;5.646;2022-08-07T03:58:47;10.13;;;7.90;;
56577;SDS011;42461;53.192;5.646;2022-08-07T04:01:14;8.93;;;8.13;;
56577;SDS011;42461;53.192;5.646;2022-08-07T04:03:41;9.70;;;8.40;;
56577;SDS011;42461;53.192;5.646;2022-08-07T04:06:08;8.68;;;7.88;;
56577;SDS011;42461;53.192;5.646;2022-08-07T04:08:34;9.93;;;8.93;;
56577;SDS011;42461;53.192;5.646;2022-08-07T04:11:00;9.40;;;8.43;;
56577;SDS011;42461;53.192;5.646;2022-08-07T04:13:27;10.75;;;9.13;;
56577;SDS011;42461;53.192;5.646;2022-08-07T04:15:53;9.68;;;8.43;;
56577;SDS011;42461;53.192;5.646;2022-08-07T04:18:19;9.63;;;8.63;;
56577;SDS011;42461;53.192;5.646;2022-08-07T04:20:45;8.75;;;7.95;;
56577;SDS011;42461;53.192;5.646;2022-08-07T04:23:11;9.15;;;8.25;;
56577;SDS011;42461;53.192;5.646;2022-08-07T04:25:38;9.60;;;8.60;;
56577;SDS011;42461;53.192;5.646;2022-08-07T04:28:05;9.00;;;8.20;;
56577;SDS011;42461;53.192;5.646;2022-08-07T04:30:32;9.38;;;8.43;;
56577;SDS011;42461;53.192;5.646;2022-08-07T04:32:58;8.63;;;7.78;;
56577;SDS011;42461;53.192;5.646;2022-08-07T04:35:25;8.75;;;7.78;;
56577;SDS011;42461;53.192;5.646;2022-08-07T04:37:51;8.88;;;7.95;;
56577;SDS011;42461;53.192;5.646;2022-08-07T04:40:17;9.38;;;8.45;;
56577;SDS011;42461;53.192;5.646;2022-08-07T04:42:43;9.60;;;8.05;;
56577;SDS011;42461;53.192;5.646;2022-08-07T04:45:09;12.23;;;8.30;;
56577;SDS011;42461;53.192;5.646;2022-08-07T04:47:40;8.77;;;7.88;;
56577;SDS011;42461;53.192;5.646;2022-08-07T04:50:13;9.50;;;8.32;;
56577;SDS011;42461;53.192;5.646;2022-08-07T04:52:49;9.32;;;8.43;;
56577;SDS011;42461;53.192;5.646;2022-08-07T05:00:20;12.48;;;8.82;;
56577;SDS011;42461;53.192;5.646;2022-08-07T05:05:42;8.45;;;7.65;;
56577;SDS011;42461;53.192;5.646;2022-08-07T05:10:55;8.57;;;7.68;;
56577;SDS011;42461;53.192;5.646;2022-08-07T05:13:26;8.98;;;8.07;;
56577;SDS011;42461;53.192;5.646;2022-08-07T05:15:53;8.48;;;7.68;;
56577;SDS011;42461;53.192;5.646;2022-08-07T05:18:22;9.02;;;8.13;;
56577;SDS011;42461;53.192;5.646;2022-08-07T05:20:49;8.77;;;7.65;;
56577;SDS011;42461;53.192;5.646;2022-08-07T05:23:19;10.30;;;7.47;;
56577;SDS011;42461;53.192;5.646;2022-08-07T05:25:47;8.98;;;8.05;;
56577;SDS011;42461;53.192;5.646;2022-08-07T05:28:14;8.27;;;7.47;;
56577;SDS011;42461;53.192;5.646;2022-08-07T05:30:41;8.73;;;7.82;;
56577;SDS011;42461;53.192;5.646;2022-08-07T05:33:08;9.40;;;8.50;;
56577;SDS011;42461;53.192;5.646;2022-08-07T05:35:34;9.32;;;7.97;;
56577;SDS011;42461;53.192;5.646;2022-08-07T05:38:02;8.82;;;7.95;;
56577;SDS011;42461;53.192;5.646;2022-08-07T05:40:30;9.05;;;8.15;;
56577;SDS011;42461;53.192;5.646;2022-08-07T05:42:57;9.80;;;7.85;;
56577;SDS011;42461;53.192;5.646;2022-08-07T05:45:23;8.85;;;7.95;;
56577;SDS011;42461;53.192;5.646;2022-08-07T05:47:50;10.18;;;8.27;;
56577;SDS011;42461;53.192;5.646;2022-08-07T05:50:17;10.38;;;7.75;;
56577;SDS011;42461;53.192;5.646;2022-08-07T05:52:43;9.35;;;8.43;;
56577;SDS011;42461;53.192;5.646;2022-08-07T05:55:09;9.98;;;8.18;;
56577;SDS011;42461;53.192;5.646;2022-08-07T05:57:36;10.73;;;8.65;;
56577;SDS011;42461;53.192;5.646;2022-08-07T06:00:03;10.65;;;8.43;;
56577;SDS011;42461;53.192;5.646;2022-08-07T06:02:30;9.93;;;8.27;;
56577;SDS011;42461;53.192;5.646;2022-08-07T06:05:16;9.32;;;7.85;;
56577;SDS011;42461;53.192;5.646;2022-08-07T06:07:43;9.43;;;7.65;;
56577;SDS011;42461;53.192;5.646;2022-08-07T06:10:09;8.55;;;7.55;;
56577;SDS011;42461;53.192;5.646;2022-08-07T06:12:36;8.95;;;8.02;;
56577;SDS011;42461;53.192;5.646;2022-08-07T06:15:02;9.57;;;8.13;;
56577;SDS011;42461;53.192;5.646;2022-08-07T06:17:28;8.80;;;7.90;;
56577;SDS011;42461;53.192;5.646;2022-08-07T06:19:55;9.50;;;7.65;;
56577;SDS011;42461;53.192;5.646;2022-08-07T06:22:22;8.75;;;7.45;;
56577;SDS011;42461;53.192;5.646;2022-08-07T06:24:49;9.38;;;8.32;;
56577;SDS011;42461;53.192;5.646;2022-08-07T06:27:22;10.27;;;7.30;;
56577;SDS011;42461;53.192;5.646;2022-08-07T06:29:49;9.40;;;8.40;;
56577;SDS011;42461;53.192;5.646;2022-08-07T06:32:15;7.78;;;6.97;;
56577;SDS011;42461;53.192;5.646;2022-08-07T06:34:41;8.90;;;7.25;;
56577;SDS011;42461;53.192;5.646;2022-08-07T06:37:07;7.47;;;6.78;;
56577;SDS011;42461;53.192;5.646;2022-08-07T06:39:33;7.28;;;6.47;;
56577;SDS011;42461;53.192;5.646;2022-08-07T06:44:28;8.30;;;6.57;;
56577;SDS011;42461;53.192;5.646;2022-08-07T06:46:55;6.65;;;5.97;;
56577;SDS011;42461;53.192;5.646;2022-08-07T06:49:21;6.45;;;5.85;;
56577;SDS011;42461;53.192;5.646;2022-08-07T06:51:47;7.50;;;5.72;;
56577;SDS011;42461;53.192;5.646;2022-08-07T06:54:14;6.45;;;5.45;;
56577;SDS011;42461;53.192;5.646;2022-08-07T06:56:41;5.43;;;4.80;;
56577;SDS011;42461;53.192;5.646;2022-08-07T06:59:11;6.43;;;5.05;;
56577;SDS011;42461;53.192;5.646;2022-08-07T07:01:38;5.82;;;4.45;;
56577;SDS011;42461;53.192;5.646;2022-08-07T07:04:06;6.97;;;4.82;;
56577;SDS011;42461;53.192;5.646;2022-08-07T07:06:32;6.22;;;5.63;;
56577;SDS011;42461;53.192;5.646;2022-08-07T07:11:57;6.63;;;4.75;;
56577;SDS011;42461;53.192;5.646;2022-08-07T07:14:25;5.00;;;4.53;;
56577;SDS011;42461;53.192;5.646;2022-08-07T07:16:53;5.57;;;4.43;;
56577;SDS011;42461;53.192;5.646;2022-08-07T07:19:32;4.82;;;4.28;;
56577;SDS011;42461;53.192;5.646;2022-08-07T07:22:00;4.43;;;4.00;;
56577;SDS011;42461;53.192;5.646;2022-08-07T07:24:26;4.75;;;4.22;;
56577;SDS011;42461;53.192;5.646;2022-08-07T07:26:53;6.40;;;4.65;;
56577;SDS011;42461;53.192;5.646;2022-08-07T07:29:22;5.53;;;4.68;;
56577;SDS011;42461;53.192;5.646;2022-08-07T07:31:50;5.35;;;4.55;;
56577;SDS011;42461;53.192;5.646;2022-08-07T07:34:24;6.18;;;4.53;;
56577;SDS011;42461;53.192;5.646;2022-08-07T07:36:51;5.72;;;4.43;;
56577;SDS011;42461;53.192;5.646;2022-08-07T07:39:18;5.38;;;4.13;;
56577;SDS011;42461;53.192;5.646;2022-08-07T07:41:46;5.43;;;4.18;;
56577;SDS011;42461;53.192;5.646;2022-08-07T07:44:15;7.47;;;5.10;;
56577;SDS011;42461;53.192;5.646;2022-08-07T07:46:41;6.82;;;4.57;;
56577;SDS011;42461;53.192;5.646;2022-08-07T07:49:07;5.22;;;3.97;;
56577;SDS011;42461;53.192;5.646;2022-08-07T07:51:34;4.07;;;3.65;;
56577;SDS011;42461;53.192;5.646;2022-08-07T07:54:01;4.38;;;3.97;;
56577;SDS011;42461;53.192;5.646;2022-08-07T07:56:29;7.90;;;4.00;;
56577;SDS011;42461;53.192;5.646;2022-08-07T07:58:57;5.53;;;4.43;;
56577;SDS011;42461;53.192;5.646;2022-08-07T08:01:24;5.53;;;4.38;;
56577;SDS011;42461;53.192;5.646;2022-08-07T08:03:51;5.30;;;4.05;;
56577;SDS011;42461;53.192;5.646;2022-08-07T08:06:18;6.72;;;3.72;;
56577;SDS011;42461;53.192;5.646;2022-08-07T08:08:44;5.18;;;3.90;;
56577;SDS011;42461;53.192;5.646;2022-08-07T08:11:11;4.03;;;3.55;;
56577;SDS011;42461;53.192;5.646;2022-08-07T08:13:47;4.53;;;3.70;;
56577;SDS011;42461;53.192;5.646;2022-08-07T08:16:14;5.75;;;3.83;;
56577;SDS011;42461;53.192;5.646;2022-08-07T08:18:42;5.03;;;3.70;;
56577;SDS011;42461;53.192;5.646;2022-08-07T08:21:08;5.07;;;3.83;;
56577;SDS011;42461;53.192;5.646;2022-08-07T08:23:55;5.25;;;3.90;;
56577;SDS011;42461;53.192;5.646;2022-08-07T08:29:25;4.32;;;3.45;;
56577;SDS011;42461;53.192;5.646;2022-08-07T08:31:52;4.53;;;3.50;;
56577;SDS011;42461;53.192;5.646;2022-08-07T08:34:18;5.50;;;3.70;;
56577;SDS011;42461;53.192;5.646;2022-08-07T08:36:46;5.80;;;3.88;;
56577;SDS011;42461;53.192;5.646;2022-08-07T08:39:13;5.70;;;3.20;;
56577;SDS011;42461;53.192;5.646;2022-08-07T08:41:42;4.97;;;3.50;;
56577;SDS011;42461;53.192;5.646;2022-08-07T08:52:10;3.92;;;3.10;;
56577;SDS011;42461;53.192;5.646;2022-08-07T08:54:55;4.57;;;3.00;;
56577;SDS011;42461;53.192;5.646;2022-08-07T08:57:34;4.68;;;3.20;;
56577;SDS011;42461;53.192;5.646;2022-08-07T09:00:06;3.60;;;3.10;;
56577;SDS011;42461;53.192;5.646;2022-08-07T09:05:39;4.45;;;3.20;;
56577;SDS011;42461;53.192;5.646;2022-08-07T09:11:09;5.68;;;3.05;;
56577;SDS011;42461;53.192;5.646;2022-08-07T09:16:33;3.70;;;2.67;;
56577;SDS011;42461;53.192;5.646;2022-08-07T09:21:30;4.18;;;2.90;;
56577;SDS011;42461;53.192;5.646;2022-08-07T09:26:56;3.83;;;2.60;;
56577;SDS011;42461;53.192;5.646;2022-08-07T09:29:28;5.00;;;2.63;;
56577;SDS011;42461;53.192;5.646;2022-08-07T09:32:01;4.13;;;2.78;;
56577;SDS011;42461;53.192;5.646;2022-08-07T09:37:37;5.38;;;2.60;;
56577;SDS011;42461;53.192;5.646;2022-08-07T09:50:48;4.05;;;2.15;;
56577;SDS011;42461;53.192;5.646;2022-08-07T09:53:15;4.90;;;2.63;;
56577;SDS011;42461;53.192;5.646;2022-08-07T10:01:25;4.55;;;2.40;;
56577;SDS011;42461;53.192;5.646;2022-08-07T10:06:35;2.47;;;1.90;;
56577;SDS011;42461;53.192;5.646;2022-08-07T10:11:50;2.88;;;1.60;;
56577;SDS011;42461;53.192;5.646;2022-08-07T10:19:42;3.28;;;1.63;;
56577;SDS011;42461;53.192;5.646;2022-08-07T10:25:02;1.40;;;1.30;;
56577;SDS011;42461;53.192;5.646;2022-08-07T10:30:05;2.25;;;1.50;;
56577;SDS011;42461;53.192;5.646;2022-08-07T10:40:28;3.08;;;1.70;;
56577;SDS011;42461;53.192;5.646;2022-08-07T10:42:57;3.42;;;1.80;;
56577;SDS011;42461;53.192;5.646;2022-08-07T10:45:37;3.70;;;2.30;;
56577;SDS011;42461;53.192;5.646;2022-08-07T10:48:10;2.90;;;2.00;;
56577;SDS011;42461;53.192;5.646;2022-08-07T10:50:59;2.42;;;1.95;;
56577;SDS011;42461;53.192;5.646;2022-08-07T10:53:33;5.05;;;2.10;;
56577;SDS011;42461;53.192;5.646;2022-08-07T10:56:02;3.55;;;2.10;;
56577;SDS011;42461;53.192;5.646;2022-08-07T10:58:41;4.65;;;2.13;;
56577;SDS011;42461;53.192;5.646;2022-08-07T11:01:20;3.42;;;1.90;;
56577;SDS011;42461;53.192;5.646;2022-08-07T11:06:20;2.10;;;1.90;;
56577;SDS011;42461;53.192;5.646;2022-08-07T11:11:38;2.28;;;1.80;;
56577;SDS011;42461;53.192;5.646;2022-08-07T11:14:47;3.70;;;1.80;;
56577;SDS011;42461;53.192;5.646;2022-08-07T11:17:10;2.40;;;1.80;;
56577;SDS011;42461;53.192;5.646;2022-08-07T11:19:45;3.05;;;2.40;;
56577;SDS011;42461;53.192;5.646;2022-08-07T11:22:17;2.50;;;2.10;;
56577;SDS011;42461;53.192;5.646;2022-08-07T11:24:48;2.42;;;2.20;;
56577;SDS011;42461;53.192;5.646;2022-08-07T11:32:34;2.92;;;2.08;;
56577;SDS011;42461;53.192;5.646;2022-08-07T11:35:03;2.33;;;2.13;;
56577;SDS011;42461;53.192;5.646;2022-08-07T11:43:05;3.75;;;2.40;;
56577;SDS011;42461;53.192;5.646;2022-08-07T11:56:00;2.78;;;2.30;;
56577;SDS011;42461;53.192;5.646;2022-08-07T12:03:46;3.10;;;2.05;;
56577;SDS011;42461;53.192;5.646;2022-08-07T12:06:33;2.85;;;2.08;;
56577;SDS011;42461;53.192;5.646;2022-08-07T12:11:51;2.42;;;2.22;;
56577;SDS011;42461;53.192;5.646;2022-08-07T12:14:19;4.43;;;2.53;;
56577;SDS011;42461;53.192;5.646;2022-08-07T12:16:47;5.10;;;2.65;;
56577;SDS011;42461;53.192;5.646;2022-08-07T12:19:18;3.42;;;2.58;;
56577;SDS011;42461;53.192;5.646;2022-08-07T12:24:15;3.17;;;2.17;;
56577;SDS011;42461;53.192;5.646;2022-08-07T12:26:47;6.07;;;2.47;;
56577;SDS011;42461;53.192;5.646;2022-08-07T12:31:48;2.40;;;2.20;;
56577;SDS011;42461;53.192;5.646;2022-08-07T12:34:16;3.53;;;2.40;;
56577;SDS011;42461;53.192;5.646;2022-08-07T12:36:43;2.90;;;2.22;;
56577;SDS011;42461;53.192;5.646;2022-08-07T12:39:09;2.90;;;2.47;;
56577;SDS011;42461;53.192;5.646;2022-08-07T12:41:36;3.25;;;2.45;;
56577;SDS011;42461;53.192;5.646;2022-08-07T12:44:06;4.53;;;2.55;;
56577;SDS011;42461;53.192;5.646;2022-08-07T12:51:50;5.38;;;2.90;;
56577;SDS011;42461;53.192;5.646;2022-08-07T12:54:26;6.90;;;2.70;;
56577;SDS011;42461;53.192;5.646;2022-08-07T12:56:55;3.03;;;2.67;;
56577;SDS011;42461;53.192;5.646;2022-08-07T12:59:24;5.07;;;3.10;;
56577;SDS011;42461;53.192;5.646;2022-08-07T13:04:50;2.67;;;2.40;;
56577;SDS011;42461;53.192;5.646;2022-08-07T13:14:52;4.18;;;2.80;;
56577;SDS011;42461;53.192;5.646;2022-08-07T13:17:23;3.20;;;2.45;;
56577;SDS011;42461;53.192;5.646;2022-08-07T13:27:40;3.67;;;2.28;;
56577;SDS011;42461;53.192;5.646;2022-08-07T13:30:09;3.13;;;2.03;;
56577;SDS011;42461;53.192;5.646;2022-08-07T13:37:43;3.75;;;2.08;;
56577;SDS011;42461;53.192;5.646;2022-08-07T13:42:36;3.83;;;2.20;;
56577;SDS011;42461;53.192;5.646;2022-08-07T13:45:05;2.50;;;2.13;;
56577;SDS011;42461;53.192;5.646;2022-08-07T13:47:34;5.32;;;2.40;;
56577;SDS011;42461;53.192;5.646;2022-08-07T13:50:02;4.05;;;2.40;;
56577;SDS011;42461;53.192;5.646;2022-08-07T13:52:29;4.10;;;2.40;;
56577;SDS011;42461;53.192;5.646;2022-08-07T13:54:56;5.78;;;2.30;;
56577;SDS011;42461;53.192;5.646;2022-08-07T13:57:24;3.28;;;2.42;;
56577;SDS011;42461;53.192;5.646;2022-08-07T13:59:50;3.78;;;2.40;;
56577;SDS011;42461;53.192;5.646;2022-08-07T14:02:24;3.28;;;2.42;;
56577;SDS011;42461;53.192;5.646;2022-08-07T14:04:52;4.30;;;2.50;;
56577;SDS011;42461;53.192;5.646;2022-08-07T14:07:20;3.88;;;2.42;;
56577;SDS011;42461;53.192;5.646;2022-08-07T14:09:47;3.22;;;2.45;;
56577;SDS011;42461;53.192;5.646;2022-08-07T14:12:29;3.47;;;2.65;;
56577;SDS011;42461;53.192;5.646;2022-08-07T14:15:00;4.13;;;2.50;;
56577;SDS011;42461;53.192;5.646;2022-08-07T14:17:28;4.32;;;2.53;;
56577;SDS011;42461;53.192;5.646;2022-08-07T14:19:58;5.18;;;2.60;;
56577;SDS011;42461;53.192;5.646;2022-08-07T14:22:27;4.05;;;2.67;;
56577;SDS011;42461;53.192;5.646;2022-08-07T14:25:09;3.20;;;2.35;;
56577;SDS011;42461;53.192;5.646;2022-08-07T14:27:36;4.10;;;3.00;;
56577;SDS011;42461;53.192;5.646;2022-08-07T14:30:06;3.03;;;2.83;;
56577;SDS011;42461;53.192;5.646;2022-08-07T14:32:36;5.03;;;3.03;;
56577;SDS011;42461;53.192;5.646;2022-08-07T14:35:05;6.03;;;3.13;;
56577;SDS011;42461;53.192;5.646;2022-08-07T14:37:33;5.63;;;3.45;;
56577;SDS011;42461;53.192;5.646;2022-08-07T14:40:00;6.32;;;3.42;;
56577;SDS011;42461;53.192;5.646;2022-08-07T14:42:29;5.50;;;3.47;;
56577;SDS011;42461;53.192;5.646;2022-08-07T14:45:00;5.30;;;3.20;;
56577;SDS011;42461;53.192;5.646;2022-08-07T14:47:29;4.88;;;3.05;;
56577;SDS011;42461;53.192;5.646;2022-08-07T14:49:56;5.13;;;3.10;;
56577;SDS011;42461;53.192;5.646;2022-08-07T14:52:26;3.50;;;2.95;;
56577;SDS011;42461;53.192;5.646;2022-08-07T14:54:58;6.10;;;3.42;;
56577;SDS011;42461;53.192;5.646;2022-08-07T14:57:27;3.88;;;3.05;;
56577;SDS011;42461;53.192;5.646;2022-08-07T14:59:56;5.53;;;3.08;;
56577;SDS011;42461;53.192;5.646;2022-08-07T15:02:22;9.05;;;3.20;;
56577;SDS011;42461;53.192;5.646;2022-08-07T15:04:54;4.95;;;2.65;;
56577;SDS011;42461;53.192;5.646;2022-08-07T15:07:21;2.95;;;2.70;;
56577;SDS011;42461;53.192;5.646;2022-08-07T15:09:49;3.63;;;3.00;;
56577;SDS011;42461;53.192;5.646;2022-08-07T15:12:21;4.45;;;2.63;;
56577;SDS011;42461;53.192;5.646;2022-08-07T15:14:52;5.25;;;2.65;;
56577;SDS011;42461;53.192;5.646;2022-08-07T15:17:20;4.63;;;3.08;;
56577;SDS011;42461;53.192;5.646;2022-08-07T15:19:51;5.70;;;3.03;;
56577;SDS011;42461;53.192;5.646;2022-08-07T15:22:21;5.43;;;2.90;;
56577;SDS011;42461;53.192;5.646;2022-08-07T15:24:49;4.88;;;2.72;;
56577;SDS011;42461;53.192;5.646;2022-08-07T15:27:20;4.63;;;2.75;;
56577;SDS011;42461;53.192;5.646;2022-08-07T15:29:49;3.75;;;2.60;;
56577;SDS011;42461;53.192;5.646;2022-08-07T15:32:15;6.32;;;2.72;;
56577;SDS011;42461;53.192;5.646;2022-08-07T15:34:44;5.63;;;2.92;;
56577;SDS011;42461;53.192;5.646;2022-08-07T15:37:14;2.78;;;2.53;;
56577;SDS011;42461;53.192;5.646;2022-08-07T15:39:41;4.47;;;2.60;;
56577;SDS011;42461;53.192;5.646;2022-08-07T15:44:57;5.38;;;2.88;;
56577;SDS011;42461;53.192;5.646;2022-08-07T15:47:29;6.65;;;2.80;;
56577;SDS011;42461;53.192;5.646;2022-08-07T15:49:57;5.63;;;3.05;;
56577;SDS011;42461;53.192;5.646;2022-08-07T15:52:24;5.70;;;2.97;;
56577;SDS011;42461;53.192;5.646;2022-08-07T15:54:51;5.15;;;2.80;;
56577;SDS011;42461;53.192;5.646;2022-08-07T15:57:25;4.97;;;2.72;;
56577;SDS011;42461;53.192;5.646;2022-08-07T15:59:52;4.18;;;2.88;;
56577;SDS011;42461;53.192;5.646;2022-08-07T16:02:24;3.63;;;2.60;;
56577;SDS011;42461;53.192;5.646;2022-08-07T16:04:54;5.60;;;2.88;;
56577;SDS011;42461;53.192;5.646;2022-08-07T16:07:25;8.27;;;4.15;;
56577;SDS011;42461;53.192;5.646;2022-08-07T16:09:56;7.53;;;3.00;;
56577;SDS011;42461;53.192;5.646;2022-08-07T16:15:00;4.60;;;2.53;;
56577;SDS011;42461;53.192;5.646;2022-08-07T16:17:38;4.47;;;2.50;;
56577;SDS011;42461;53.192;5.646;2022-08-07T16:20:18;4.00;;;2.60;;
56577;SDS011;42461;53.192;5.646;2022-08-07T16:23:04;4.85;;;2.60;;
56577;SDS011;42461;53.192;5.646;2022-08-07T16:25:37;4.90;;;2.47;;
56577;SDS011;42461;53.192;5.646;2022-08-07T16:28:20;4.78;;;2.47;;
56577;SDS011;42461;53.192;5.646;2022-08-07T16:31:16;5.75;;;2.30;;
56577;SDS011;42461;53.192;5.646;2022-08-07T16:33:36;3.92;;;2.50;;
56577;SDS011;42461;53.192;5.646;2022-08-07T16:36:17;2.90;;;2.00;;
56577;SDS011;42461;53.192;5.646;2022-08-07T16:51:39;2.70;;;1.90;;
56577;SDS011;42461;53.192;5.646;2022-08-07T16:54:24;4.25;;;2.10;;
56577;SDS011;42461;53.192;5.646;2022-08-07T17:02:14;5.50;;;1.90;;
56577;SDS011;42461;53.192;5.646;2022-08-07T17:07:32;4.28;;;1.90;;
56577;SDS011;42461;53.192;5.646;2022-08-07T17:10:03;2.65;;;2.00;;
56577;SDS011;42461;53.192;5.646;2022-08-07T17:12:40;4.05;;;2.03;;
56577;SDS011;42461;53.192;5.646;2022-08-07T17:20:21;2.28;;;1.45;;
56577;SDS011;42461;53.192;5.646;2022-08-07T17:23:04;4.18;;;1.83;;
56577;SDS011;42461;53.192;5.646;2022-08-07T17:28:33;3.08;;;1.45;;
56577;SDS011;42461;53.192;5.646;2022-08-07T17:31:12;3.88;;;1.70;;
56577;SDS011;42461;53.192;5.646;2022-08-07T17:33:44;3.28;;;1.50;;
56577;SDS011;42461;53.192;5.646;2022-08-07T17:36:12;4.05;;;2.05;;
56577;SDS011;42461;53.192;5.646;2022-08-07T17:43:58;2.65;;;1.50;;
56577;SDS011;42461;53.192;5.646;2022-08-07T17:46:38;3.72;;;1.70;;
56577;SDS011;42461;53.192;5.646;2022-08-07T17:51:37;3.65;;;1.52;;
56577;SDS011;42461;53.192;5.646;2022-08-07T17:54:10;1.95;;;1.50;;
56577;SDS011;42461;53.192;5.646;2022-08-07T17:56:39;5.32;;;1.45;;
56577;SDS011;42461;53.192;5.646;2022-08-07T17:59:21;3.35;;;1.33;;
56577;SDS011;42461;53.192;5.646;2022-08-07T18:01:54;4.65;;;1.70;;
56577;SDS011;42461;53.192;5.646;2022-08-07T18:09:28;1.90;;;1.40;;
56577;SDS011;42461;53.192;5.646;2022-08-07T18:12:16;2.45;;;1.60;;
56577;SDS011;42461;53.192;5.646;2022-08-07T18:14:50;4.32;;;1.48;;
56577;SDS011;42461;53.192;5.646;2022-08-07T18:20:13;1.92;;;1.30;;
56577;SDS011;42461;53.192;5.646;2022-08-07T18:25:10;2.83;;;1.63;;